Scroll down
FLIGHT INFORMATION
United Airlines

UAL3477

At Arrival Gate

KIAD
 KDEN
DATE: 2019-11-17
GATE: B66
GATE DEPARTURE: 13:39
TAKEOFF: 13:48
DATE: 2019-11-18
GATE:  -
LANDING: 17:06
GATE ARRIVAL: 17:18
FLIGHT DATA
Crew: AARON BUCHANAN
Speed: 461 kts Altitude: 36000 ft
Stage Length: 1259 nm
Route: 
Block Time:  -  Flight Time:  -
Fuel Used: 19144 LB
TRACK DATA
50000 FT1000 KT
AIRCRAFT INFO AND CUMULATIVE STATS
Aircraft Type: B738SSW
Registration: N37267
SELCAL:  MSN/LN: 31586 / 939
Operator: UNITED AIRLINES
Total Flights: 32 
Total Block Time: 77.2 Total Flight Time: 69.4
Total Fuel Used: 459482 LB
DATALINK LOG | Newest first | Current as of: 2020-10-25 07:35:48
LABEL SEQUENCE CONTENT Dn/Up
2U1558KDEN 171453Z 17008KT 10SM FEW070 FEW120 FEW220 M01/M04 A3015 RMK AO2 SLP216 T10061039 56005▲ Up
5U1547KDEN 171911Z 17010KT 10SM FEW100 M01/M04 A3015▲ Up
2S1558KDEN▼ Dn
5S1547KDEN▼ Dn
A33138CLEARED TO KDEN VIA BUNZZ3 RAMAY Q72 HACKS J149 ROD BVT PIA OVR SPAWN WAHUU2. SQUAWK 4750.▲ Up
Q02827[LINK ACK]▲ Up
Q02331[LINK TEST]▼ Dn


AIRCRAFT HISTORY
FLIGHT DATE FLIGHT NO. ORIGIN DESTINATION ROUTE BLOCK TIME FLIGHT TIME FUEL USED (LB) PILOT
2020-07-25UAL727PTKK PGUM PTKK WUMVE GUNSS JUNIE OPLAR GUMGE FIGOR PGUM1.61.49106James W.
2020-07-24UAL726PTPN PTKK PTPN BIRUQ MICNO RW041.217369James W.
2020-07-24UAL725PTSA PTPN PTSA AXTEN RW091.217251James W.
2020-07-23UAL724PKWA PTSA PKWA STEFF LECWI PTSA1.217399James W.
2020-07-23UAL723PKMJ PKWA PKMJ OREEO RW061.10.97023James W.
2020-06-19UAL157PHNL PKMJ PHNL OPIHI SEBYI SECJI ZUKEY BINJO CHOKO MCFLY MANRE MAZZA EFAHU RW074.94.626346Dan Downs
2020-03-23UAL155PKMJ PHNL 4.54.225435Dan Downs
2020-03-22UAL155PKWA PKMJ 0.80.75131Dan Downs
2020-03-22UAL155PTSA PKWA 1.216962Dan Downs
2020-03-22UAL155PTPN PTSA 10.86138Dan Downs
2020-03-21UAL155PTKK PTPN 1.217487Dan Downs
2020-03-21UAL155PGUM PTKK 1.71.49742Dan Downs
2020-03-18UAL184RPLL PGUM 3.43.118694Dan Downs
2020-02-02UAL183PGUM RPLL 3.63.320734Dan Downs
2020-01-29UAL197RJAA PGUM 4.13.523099Dan Downs
2019-12-10UAL603PTKK RJAA 4.94.525188Charles Harris
2019-12-10UAL154PTPN PTKK 1.21.16910Dan Downs
2019-12-09UAL154PTSA PTPN 1.10.96172Dan Downs
2019-12-09UAL154PKWA PTSA 1.216934Dan Downs
2019-12-02UAL157PKMJ PKWA 10.85325Dan Downs
2019-12-02UAL154PHNL PKMJ 5.24.928948Dan Downs
2019-12-01UAL2380KSFO PHNL 5.3531087Dan Downs
2019-11-30UAL1675KBWI KSFO 65.834158Michael Roth
2019-11-30UAL1061KSFO KBWI 4.44.425285Michael Roth
2019-11-29UAL2233KPDX KSFO 1.61.38130Michael Roth
2019-11-29UAL2390KORD KPDX 4.44.124361Michael Roth
2019-11-24UAL1598KBOS KORD 2.72.313456Michael Roth
2019-11-23UAL822KIAD KBOS 1.31.17183Dan Downs
2019-11-23UAL340KORD KIAD 1.81.49450Dan Downs
2019-11-22UAL1121KDEN KORD 2.41.911255Michael Roth
2019-11-17UAL3477KIAD KDEN 3.73.319144Aaron Buchanan
2019-11-14UAL1114KORD KIAD 1.71.38580Aaron Buchanan